Time;durP1;ratioP1;P1;durP2;ratioP2;P2;SDS_P1;SDS_P2;PMS_P1;PMS_P2;Temp;Humidity;BMP_temperature;BMP_pressure;BME280_temperature;BME280_humidity;BME280_pressure;Samples;Min_cycle;Max_cycle;Signal;HPM_P1;HPM_P2
2024/03/06 00:02:15;;;;;;;42.95;29.23;;;7.20;99.90;;;;;;5001461;28;20048;-78
2024/03/06 00:04:41;;;;;;;42.53;30.85;;;7.20;99.90;;;;;;4968670;28;20502;-78
2024/03/06 00:07:07;;;;;;;45.80;31.55;;;7.20;99.90;;;;;;4967512;28;20564;-78
2024/03/06 00:09:34;;;;;;;45.53;30.52;;;7.20;99.90;;;;;;4965568;28;20045;-78
2024/03/06 00:12:00;;;;;;;50.45;33.35;;;7.20;99.90;;;;;;5008031;28;20100;-77
2024/03/06 00:14:27;;;;;;;47.92;32.55;;;7.10;99.90;;;;;;4993582;28;20037;-78
2024/03/06 00:16:55;;;;;;;50.85;33.80;;;7.10;99.90;;;;;;4966506;28;20038;-78
2024/03/06 00:19:22;;;;;;;52.67;35.45;;;7.10;99.90;;;;;;4990309;28;20645;-78
2024/03/06 00:21:49;;;;;;;46.97;31.65;;;7.10;99.90;;;;;;4981445;28;20110;-79
2024/03/06 00:24:16;;;;;;;48.60;32.30;;;7.10;99.90;;;;;;5016373;28;20037;-78
2024/03/06 00:26:44;;;;;;;46.22;31.02;;;7.10;99.90;;;;;;4992234;28;20056;-78
2024/03/06 00:29:11;;;;;;;45.65;30.67;;;7.10;99.90;;;;;;4988970;28;20048;-79
2024/03/06 00:31:43;;;;;;;43.50;30.75;;;7.00;99.90;;;;;;4964369;28;20036;-78
2024/03/06 00:34:15;;;;;;;47.57;32.53;;;7.00;99.90;;;;;;4965661;28;20060;-78
2024/03/06 00:36:43;;;;;;;;;;;7.00;99.90;;;;;;4955332;28;20042;-79
2024/03/06 00:39:10;;;;;;;39.00;28.98;;;7.00;99.90;;;;;;4983682;28;19912;-79
2024/03/06 00:41:36;;;;;;;41.15;28.05;;;6.90;99.90;;;;;;4999377;28;20049;-79
2024/03/06 00:44:03;;;;;;;43.03;29.02;;;6.90;99.90;;;;;;5028778;28;20044;-79
2024/03/06 00:46:29;;;;;;;42.55;29.35;;;6.90;99.90;;;;;;4973840;28;20042;-78
2024/03/06 00:48:56;;;;;;;41.80;29.02;;;6.80;99.90;;;;;;4991987;28;20049;-79
2024/03/06 00:51:23;;;;;;;45.42;31.23;;;6.80;99.90;;;;;;4977863;28;20037;-79
2024/03/06 00:53:49;;;;;;;41.75;30.95;;;6.80;99.90;;;;;;4995611;28;20511;-79
2024/03/06 00:56:15;;;;;;;46.15;32.67;;;6.70;99.90;;;;;;5002749;28;20464;-79
2024/03/06 00:58:41;;;;;;;41.40;29.00;;;6.70;99.90;;;;;;4994740;28;20037;-79
2024/03/06 01:01:08;;;;;;;39.50;27.90;;;6.60;99.90;;;;;;4989721;28;21150;-78
2024/03/06 01:03:34;;;;;;;38.17;27.40;;;6.50;99.90;;;;;;4991152;28;21523;-79
2024/03/06 01:06:01;;;;;;;39.88;27.77;;;6.40;99.90;;;;;;4978497;28;20469;-78
2024/03/06 01:08:27;;;;;;;37.65;27.75;;;6.40;99.90;;;;;;4983870;28;20040;-79
2024/03/06 01:10:54;;;;;;;35.63;25.00;;;6.30;99.90;;;;;;4993908;28;20033;-78
2024/03/06 01:13:20;;;;;;;32.65;24.10;;;6.20;99.90;;;;;;4973900;28;20049;-78
2024/03/06 01:15:47;;;;;;;33.15;23.77;;;6.20;99.90;;;;;;4991500;28;20156;-78
2024/03/06 01:18:14;;;;;;;32.97;23.33;;;6.10;99.90;;;;;;4978877;28;20045;-78
2024/03/06 01:20:40;;;;;;;35.90;25.17;;;6.10;99.90;;;;;;4986250;28;22196;-79
2024/03/06 01:23:06;;;;;;;36.95;26.65;;;6.00;99.90;;;;;;4997412;28;20037;-78
2024/03/06 01:25:33;;;;;;;32.75;24.50;;;6.00;99.90;;;;;;4974952;28;20428;-78
2024/03/06 01:27:59;;;;;;;31.63;24.15;;;6.00;99.90;;;;;;4973512;28;20389;-78
2024/03/06 01:30:25;;;;;;;42.28;29.42;;;5.90;99.90;;;;;;4989166;28;20044;-78
2024/03/06 01:32:52;;;;;;;38.17;26.70;;;5.90;99.90;;;;;;4996440;28;20054;-78
2024/03/06 01:35:18;;;;;;;37.88;27.42;;;5.80;99.90;;;;;;5002142;28;20029;-79
2024/03/06 01:37:45;;;;;;;36.00;25.95;;;5.80;99.90;;;;;;4994015;28;20038;-79
2024/03/06 01:40:12;;;;;;;37.10;27.00;;;5.80;99.90;;;;;;5004918;28;20461;-79
2024/03/06 01:42:38;;;;;;;42.60;28.73;;;5.70;99.90;;;;;;4975119;28;20475;-79
2024/03/06 01:45:06;;;;;;;41.10;27.88;;;5.70;99.90;;;;;;4962343;28;20037;-79
2024/03/06 01:47:32;;;;;;;35.83;25.52;;;5.70;99.90;;;;;;5012839;28;20029;-78
2024/03/06 01:49:59;;;;;;;39.58;28.05;;;5.60;99.90;;;;;;5000539;28;20388;-79
2024/03/06 01:52:26;;;;;;;33.97;25.08;;;5.60;99.90;;;;;;4960164;28;20037;-78
2024/03/06 01:54:53;;;;;;;37.38;27.95;;;5.60;99.90;;;;;;4975469;28;20034;-79
2024/03/06 01:57:20;;;;;;;40.22;26.98;;;5.50;99.90;;;;;;4976958;28;20033;-79
2024/03/06 01:59:48;;;;;;;38.40;26.48;;;5.50;99.90;;;;;;4991122;28;20037;-79
2024/03/06 02:02:14;;;;;;;40.65;27.08;;;5.50;99.90;;;;;;4983355;28;20033;-79
2024/03/06 02:04:41;;;;;;;35.35;24.83;;;5.40;99.90;;;;;;4997810;28;20037;-78
2024/03/06 02:07:10;;;;;;;37.58;26.23;;;5.40;99.90;;;;;;4991880;28;20496;-78
2024/03/06 02:09:38;;;;;;;37.85;26.25;;;5.40;99.90;;;;;;4991791;28;20318;-79
2024/03/06 02:12:08;;;;;;;37.17;27.23;;;5.30;99.90;;;;;;5007253;28;20384;-79
2024/03/06 02:14:38;;;;;;;40.85;26.70;;;5.30;99.90;;;;;;4996123;28;20034;-79
2024/03/06 02:17:04;;;;;;;36.42;25.63;;;5.30;99.90;;;;;;4982518;28;20125;-79
2024/03/06 02:19:42;;;;;;;38.53;26.45;;;5.30;99.90;;;;;;4972777;28;20029;-79
2024/03/06 02:22:10;;;;;;;39.53;26.17;;;5.30;99.90;;;;;;4971779;28;20037;-78
2024/03/06 02:24:37;;;;;;;38.28;27.60;;;5.20;99.90;;;;;;4991182;28;20044;-79
2024/03/06 02:27:06;;;;;;;41.80;29.38;;;5.20;99.90;;;;;;4977551;28;20037;-78
2024/03/06 02:29:33;;;;;;;43.83;30.02;;;5.10;99.90;;;;;;4995975;28;20037;-79
2024/03/06 02:32:02;;;;;;;39.97;28.17;;;5.10;99.90;;;;;;4961267;28;20314;-79
2024/03/06 02:34:30;;;;;;;41.20;26.38;;;5.10;99.90;;;;;;4971161;28;20041;-78
2024/03/06 02:36:56;;;;;;;36.15;25.02;;;5.10;99.90;;;;;;4987179;28;20052;-79
2024/03/06 02:39:23;;;;;;;39.05;27.88;;;5.00;99.90;;;;;;4987996;28;20383;-79
2024/03/06 02:41:49;;;;;;;38.55;27.38;;;5.00;99.90;;;;;;4963929;28;20037;-79
2024/03/06 02:44:17;;;;;;;39.28;27.15;;;5.00;99.90;;;;;;4998576;28;20032;-79
2024/03/06 02:46:51;;;;;;;42.67;29.38;;;4.90;99.90;;;;;;4988305;28;20484;-79
2024/03/06 02:49:18;;;;;;;44.83;29.23;;;4.90;99.90;;;;;;4990246;28;20038;-79
2024/03/06 02:51:45;;;;;;;44.38;29.45;;;4.90;99.90;;;;;;4971199;28;20048;-79
2024/03/06 02:54:12;;;;;;;41.22;26.77;;;5.00;99.90;;;;;;4956999;28;20048;-79
2024/03/06 02:56:38;;;;;;;45.08;29.40;;;4.90;99.90;;;;;;4964611;28;20412;-80
2024/03/06 02:59:04;;;;;;;42.28;30.38;;;4.90;99.90;;;;;;4993881;28;20108;-79
2024/03/06 03:01:31;;;;;;;42.42;28.38;;;4.80;99.90;;;;;;4988574;28;20033;-79
2024/03/06 03:03:58;;;;;;;44.55;28.88;;;4.80;99.90;;;;;;4958062;28;20056;-79
2024/03/06 03:06:24;;;;;;;40.67;27.10;;;4.80;99.90;;;;;;4974744;28;20049;-79
2024/03/06 03:08:51;;;;;;;41.88;29.00;;;4.70;99.90;;;;;;4997479;28;20033;-79
2024/03/06 03:11:17;;;;;;;37.88;25.48;;;4.70;99.90;;;;;;4998107;28;20408;-78
2024/03/06 03:13:44;;;;;;;43.65;29.83;;;4.70;99.90;;;;;;4975788;28;20025;-79
2024/03/06 03:16:17;;;;;;;39.00;28.02;;;4.70;99.90;;;;;;4994396;28;20040;-78
2024/03/06 03:18:45;;;;;;;41.75;29.50;;;4.60;99.90;;;;;;4995685;28;20136;-78
2024/03/06 03:21:12;;;;;;;41.65;28.05;;;4.60;99.90;;;;;;4987711;28;20032;-79
2024/03/06 03:23:39;;;;;;;39.03;25.95;;;4.60;99.90;;;;;;4995092;28;20037;-78
2024/03/06 03:26:10;;;;;;;41.83;27.50;;;4.60;99.90;;;;;;4993845;28;20535;-80
2024/03/06 03:28:39;;;;;;;40.22;26.63;;;4.60;99.90;;;;;;4989797;28;21293;-79
2024/03/06 03:31:10;;;;;;;41.38;26.83;;;4.50;99.90;;;;;;4973593;28;20029;-79
2024/03/06 03:33:39;;;;;;;40.35;26.65;;;4.50;99.90;;;;;;4969944;28;20550;-79
2024/03/06 03:36:07;;;;;;;43.22;28.20;;;4.50;99.90;;;;;;4973114;28;20499;-79
2024/03/06 03:38:39;;;;;;;40.50;27.67;;;4.50;99.90;;;;;;4980652;28;20287;-79
2024/03/06 03:41:12;;;;;;;39.22;25.38;;;4.40;99.90;;;;;;4987397;28;20047;-79
2024/03/06 03:43:41;;;;;;;41.92;26.17;;;4.40;99.90;;;;;;4986388;28;20025;-79
2024/03/06 03:46:08;;;;;;;37.03;25.15;;;4.40;99.90;;;;;;4973026;28;20056;-79
2024/03/06 03:48:36;;;;;;;41.67;27.77;;;4.30;99.90;;;;;;4974769;28;20049;-79
2024/03/06 03:51:06;;;;;;;41.22;29.08;;;4.30;99.90;;;;;;4960310;28;20896;-80
2024/03/06 03:53:36;;;;;;;41.53;27.15;;;4.30;99.90;;;;;;4996731;28;20025;-80
2024/03/06 03:56:03;;;;;;;41.92;25.42;;;4.30;99.90;;;;;;4990589;28;20600;-80
2024/03/06 03:58:29;;;;;;;39.33;25.42;;;4.30;99.90;;;;;;4971709;28;20025;-79
2024/03/06 04:00:55;;;;;;;36.78;24.33;;;4.30;99.90;;;;;;4991734;28;20926;-80
2024/03/06 04:03:22;;;;;;;33.47;23.60;;;4.30;99.90;;;;;;4990509;28;20029;-80
2024/03/06 04:05:49;;;;;;;39.20;25.65;;;4.30;99.90;;;;;;4998754;28;20033;-80
2024/03/06 04:08:16;;;;;;;41.67;27.52;;;4.20;99.90;;;;;;4996316;28;20040;-80
2024/03/06 04:10:45;;;;;;;38.65;24.35;;;4.20;99.90;;;;;;4972737;28;20747;-80
2024/03/06 04:13:15;;;;;;;40.15;26.60;;;4.20;99.90;;;;;;4972178;28;20396;-79
2024/03/06 04:15:41;;;;;;;37.22;25.05;;;4.20;99.90;;;;;;4975401;28;20037;-79
2024/03/06 04:18:07;;;;;;;40.08;25.23;;;4.20;99.90;;;;;;5031837;28;20029;-80
2024/03/06 04:20:34;;;;;;;41.63;26.67;;;4.20;99.90;;;;;;4982409;28;20041;-80
2024/03/06 04:23:00;;;;;;;37.47;24.55;;;4.20;99.90;;;;;;5008807;28;20550;-80
2024/03/06 04:25:26;;;;;;;40.53;26.00;;;4.10;99.90;;;;;;4980049;28;20052;-80
2024/03/06 04:27:53;;;;;;;38.83;24.33;;;4.10;99.90;;;;;;4961506;28;20049;-79
2024/03/06 04:30:19;;;;;;;35.90;25.80;;;4.10;99.90;;;;;;4978986;28;20036;-79
2024/03/06 04:32:46;;;;;;;43.65;26.90;;;4.10;99.90;;;;;;4998703;28;20029;-80
2024/03/06 04:35:12;;;;;;;45.10;28.35;;;4.10;99.90;;;;;;5011390;28;20061;-80
2024/03/06 04:37:39;;;;;;;42.83;28.00;;;4.10;99.90;;;;;;4993451;28;20409;-80
2024/03/06 04:40:07;;;;;;;43.60;28.90;;;4.10;99.90;;;;;;4992913;28;20040;-79
2024/03/06 04:42:37;;;;;;;43.72;29.23;;;4.10;99.90;;;;;;4978109;28;20033;-80
2024/03/06 04:45:11;;;;;;;49.10;29.98;;;4.10;99.90;;;;;;5017949;28;20486;-79
2024/03/06 04:47:37;;;;;;;43.22;27.92;;;4.10;99.90;;;;;;5002165;28;20060;-79
2024/03/06 04:50:12;;;;;;;44.25;28.85;;;4.10;99.90;;;;;;4994185;28;20046;-79
2024/03/06 04:52:39;;;;;;;43.80;28.30;;;4.10;99.90;;;;;;4976671;28;20913;-80
2024/03/06 04:55:07;;;;;;;41.55;27.67;;;4.10;99.90;;;;;;4978063;28;20040;-80
2024/03/06 04:57:34;;;;;;;44.20;27.73;;;4.10;99.90;;;;;;4977200;28;20354;-80
2024/03/06 05:00:05;;;;;;;44.35;29.38;;;4.00;99.90;;;;;;4997709;28;20040;-79
2024/03/06 05:02:36;;;;;;;45.67;28.95;;;4.00;99.90;;;;;;5028903;28;20049;-80
2024/03/06 05:05:04;;;;;;;49.75;30.92;;;4.00;99.90;;;;;;4984157;28;20377;-77
2024/03/06 05:07:31;;;;;;;47.85;29.15;;;3.90;99.90;;;;;;4993828;28;20057;-79
2024/03/06 05:09:58;;;;;;;46.90;29.65;;;3.90;99.90;;;;;;4991732;28;20038;-79
2024/03/06 05:12:25;;;;;;;47.95;29.45;;;3.90;99.90;;;;;;5001355;28;20570;-79
2024/03/06 05:14:53;;;;;;;43.92;28.40;;;3.90;99.90;;;;;;4999852;28;20136;-79
2024/03/06 05:17:20;;;;;;;50.30;31.15;;;3.90;99.90;;;;;;4994488;28;20336;-79
2024/03/06 05:19:48;;;;;;;49.92;31.10;;;3.90;99.90;;;;;;4959973;28;20033;-79
2024/03/06 05:22:15;;;;;;;59.33;32.47;;;4.00;99.90;;;;;;4976410;28;20487;-79
2024/03/06 05:24:43;;;;;;;58.47;33.13;;;4.00;99.90;;;;;;4976114;28;20041;-79
2024/03/06 05:27:13;;;;;;;60.45;33.95;;;4.10;99.90;;;;;;5001308;28;20399;-79
2024/03/06 05:29:39;;;;;;;80.90;32.42;;;4.20;99.90;;;;;;4981524;28;20045;-79
2024/03/06 05:32:09;;;;;;;79.45;34.60;;;4.20;99.90;;;;;;4977674;28;20491;-79
2024/03/06 05:34:35;;;;;;;112.85;34.85;;;4.30;99.90;;;;;;4975461;28;20511;-79
2024/03/06 05:37:04;;;;;;;87.47;33.53;;;4.30;99.90;;;;;;4974984;28;20057;-79
2024/03/06 05:39:31;;;;;;;261.42;40.20;;;4.30;99.90;;;;;;4982698;28;20539;-80
2024/03/06 05:42:04;;;;;;;86.20;38.22;;;4.40;99.90;;;;;;4998434;28;20479;-79
2024/03/06 05:44:31;;;;;;;193.27;42.17;;;4.40;99.90;;;;;;4991635;28;20467;-79
2024/03/06 05:46:59;;;;;;;118.55;36.97;;;4.50;99.90;;;;;;4975490;28;20535;-80
2024/03/06 05:49:25;;;;;;;115.35;36.08;;;4.50;99.90;;;;;;4990669;28;20317;-79
2024/03/06 05:51:52;;;;;;;71.88;34.25;;;4.50;99.90;;;;;;4995169;28;20042;-80
2024/03/06 05:54:20;;;;;;;85.93;34.45;;;4.50;99.90;;;;;;4999944;28;20037;-79
2024/03/06 05:56:51;;;;;;;64.70;34.50;;;4.50;99.90;;;;;;5007714;28;20464;-79
2024/03/06 05:59:18;;;;;;;61.20;33.90;;;4.50;99.90;;;;;;4977719;28;20863;-80
2024/03/06 06:01:45;;;;;;;79.05;34.60;;;4.50;99.90;;;;;;4990299;28;20048;-81
2024/03/06 06:04:13;;;;;;;56.90;34.05;;;4.50;99.90;;;;;;4976521;28;20044;-79
2024/03/06 06:06:40;;;;;;;54.90;32.58;;;4.50;99.90;;;;;;4999147;28;20037;-79
2024/03/06 06:09:06;;;;;;;51.55;34.80;;;4.50;99.90;;;;;;4997599;28;20033;-79
2024/03/06 06:11:33;;;;;;;60.03;32.65;;;4.40;99.90;;;;;;4978273;28;20328;-80
2024/03/06 06:13:59;;;;;;;53.55;32.80;;;4.40;99.90;;;;;;4990590;28;20256;-80
2024/03/06 06:16:26;;;;;;;52.38;33.53;;;4.30;99.90;;;;;;4977497;28;20040;-79
2024/03/06 06:18:52;;;;;;;54.78;34.10;;;4.30;99.90;;;;;;4975760;28;20029;-79
2024/03/06 06:21:18;;;;;;;64.28;33.47;;;4.30;99.90;;;;;;4981180;28;20040;-80
2024/03/06 06:23:45;;;;;;;86.32;37.72;;;4.30;99.90;;;;;;4991115;28;20033;-79
2024/03/06 06:26:11;;;;;;;107.57;42.40;;;4.40;99.90;;;;;;4973012;28;20034;-79
2024/03/06 06:28:41;;;;;;;47.95;28.70;;;4.40;99.90;;;;;;4973884;28;20033;-79
2024/03/06 06:31:07;;;;;;;69.55;37.35;;;4.40;99.90;;;;;;4988776;28;20575;-79
2024/03/06 06:33:34;;;;;;;90.70;35.10;;;4.50;99.90;;;;;;4996896;28;20037;-80
2024/03/06 06:36:00;;;;;;;63.50;37.88;;;4.50;99.90;;;;;;4998060;28;20476;-79
2024/03/06 06:38:26;;;;;;;68.63;38.50;;;4.50;99.90;;;;;;4971034;28;20044;-79
2024/03/06 06:40:53;;;;;;;66.85;37.53;;;4.50;99.90;;;;;;4973303;28;20045;-80
2024/03/06 06:43:19;;;;;;;66.90;39.65;;;4.60;99.90;;;;;;4955432;28;20029;-80
2024/03/06 06:45:46;;;;;;;56.15;35.50;;;4.60;99.90;;;;;;4973990;28;20453;-80
2024/03/06 06:48:12;;;;;;;63.38;36.22;;;4.60;99.90;;;;;;4966833;28;20057;-79
2024/03/06 06:50:39;;;;;;;55.10;32.83;;;4.60;99.90;;;;;;4992653;28;20049;-80
2024/03/06 06:53:05;;;;;;;48.25;31.80;;;4.60;99.90;;;;;;4989480;28;20048;-80
2024/03/06 06:55:31;;;;;;;52.10;32.40;;;4.60;99.90;;;;;;4971673;28;20776;-80
2024/03/06 06:57:57;;;;;;;56.42;34.88;;;4.60;99.90;;;;;;4988309;28;20052;-79
2024/03/06 07:00:25;;;;;;;60.60;32.70;;;4.70;99.90;;;;;;4994096;28;20884;-80
2024/03/06 07:02:51;;;;;;;64.45;36.05;;;4.70;99.90;;;;;;4996712;28;20040;-80
2024/03/06 07:05:18;;;;;;;57.10;35.80;;;4.70;99.90;;;;;;4974410;28;20036;-79
2024/03/06 07:07:45;;;;;;;57.83;33.97;;;4.80;99.90;;;;;;5008657;28;20034;-79
2024/03/06 07:10:12;;;;;;;60.95;34.50;;;4.80;99.90;;;;;;5008693;28;20049;-79
2024/03/06 07:12:38;;;;;;;68.80;37.17;;;4.90;99.90;;;;;;4958622;28;20044;-79
2024/03/06 07:15:06;;;;;;;142.20;42.10;;;4.90;99.90;;;;;;4977553;28;20049;-79
2024/03/06 07:17:32;;;;;;;75.20;38.17;;;5.00;99.90;;;;;;5027302;28;20040;-79
2024/03/06 07:20:03;;;;;;;148.52;41.53;;;5.00;99.90;;;;;;5002764;28;20412;-78
2024/03/06 07:22:29;;;;;;;116.35;37.50;;;5.10;99.90;;;;;;4973696;28;20041;-78
2024/03/06 07:24:55;;;;;;;144.07;39.95;;;5.10;99.90;;;;;;4974630;28;20029;-78
2024/03/06 07:27:22;;;;;;;83.72;39.95;;;5.20;99.90;;;;;;4994697;28;20049;-79
2024/03/06 07:29:49;;;;;;;142.18;40.72;;;5.20;99.90;;;;;;4981867;28;20045;-79
2024/03/06 07:32:15;;;;;;;118.70;42.22;;;5.30;99.90;;;;;;4991634;28;20034;-78
2024/03/06 07:34:42;;;;;;;91.60;37.65;;;5.40;99.90;;;;;;4985023;28;20412;-78
2024/03/06 07:37:08;;;;;;;122.22;35.58;;;5.50;99.90;;;;;;4968400;28;20046;-78
2024/03/06 07:39:35;;;;;;;115.60;37.90;;;5.50;99.90;;;;;;4986376;28;20045;-78
2024/03/06 07:42:02;;;;;;;62.70;35.53;;;5.60;99.90;;;;;;4976583;28;20041;-79
2024/03/06 07:44:28;;;;;;;88.38;35.42;;;5.60;99.90;;;;;;4978861;28;20033;-78
2024/03/06 07:46:55;;;;;;;103.07;34.65;;;5.70;99.90;;;;;;4968536;28;20052;-78
2024/03/06 07:49:24;;;;;;;89.60;38.15;;;5.70;99.90;;;;;;4951032;28;20045;-78
2024/03/06 07:51:50;;;;;;;79.57;37.42;;;5.80;99.90;;;;;;4984820;28;20408;-78
2024/03/06 07:54:18;;;;;;;74.93;38.67;;;5.80;99.90;;;;;;4984041;28;20048;-79
2024/03/06 07:56:44;;;;;;;63.28;36.60;;;5.90;99.90;;;;;;4978789;28;20049;-79
2024/03/06 07:59:12;;;;;;;80.00;34.67;;;5.90;99.90;;;;;;4990164;28;20038;-78
2024/03/06 08:01:39;;;;;;;77.07;39.22;;;6.00;99.90;;;;;;4985775;28;20041;-79
2024/03/06 08:04:05;;;;;;;86.03;38.03;;;6.10;99.90;;;;;;4963718;28;20034;-77
2024/03/06 08:06:33;;;;;;;127.63;41.90;;;6.20;99.90;;;;;;4983184;28;20033;-78
2024/03/06 08:09:01;;;;;;;108.05;42.72;;;6.20;99.90;;;;;;4973674;28;21898;-78
2024/03/06 08:11:28;;;;;;;83.25;37.75;;;6.30;99.90;;;;;;4995713;28;20032;-79
2024/03/06 08:13:58;;;;;;;99.43;44.47;;;6.40;99.90;;;;;;4971462;28;20037;-79
2024/03/06 08:16:25;;;;;;;110.93;42.13;;;6.50;99.90;;;;;;4971914;28;21048;-80
2024/03/06 08:18:51;;;;;;;67.78;38.85;;;6.60;99.90;;;;;;4983710;28;20530;-78
2024/03/06 08:21:19;;;;;;;100.57;41.25;;;6.60;99.90;;;;;;4981693;28;20033;-79
2024/03/06 08:23:47;;;;;;;82.35;42.90;;;6.60;99.90;;;;;;4997670;28;20033;-81
2024/03/06 08:26:13;;;;;;;120.32;46.33;;;6.70;99.90;;;;;;4978812;28;20427;-80
2024/03/06 08:28:40;;;;;;;74.38;40.78;;;6.80;99.90;;;;;;4987966;28;20053;-81
2024/03/06 08:31:08;;;;;;;115.80;43.72;;;6.90;99.90;;;;;;4991202;28;20030;-80
2024/03/06 08:33:34;;;;;;;80.80;38.40;;;7.00;99.90;;;;;;4986740;28;21631;-80
2024/03/06 08:36:02;;;;;;;66.25;36.30;;;7.00;99.90;;;;;;4984980;28;20058;-80
2024/03/06 08:38:29;;;;;;;83.97;36.45;;;7.00;99.90;;;;;;4975303;28;20664;-79
2024/03/06 08:40:55;;;;;;;77.05;36.17;;;7.00;99.90;;;;;;4973298;28;20155;-80
2024/03/06 08:43:22;;;;;;;128.40;42.58;;;7.00;99.90;;;;;;4980966;28;20033;-79
2024/03/06 08:45:48;;;;;;;75.45;38.40;;;7.00;99.90;;;;;;4996792;28;20041;-80
2024/03/06 08:48:15;;;;;;;139.50;42.38;;;7.00;99.90;;;;;;4983363;28;20041;-80
2024/03/06 08:50:41;;;;;;;117.32;43.13;;;7.10;99.90;;;;;;4991240;28;20049;-81
2024/03/06 08:53:09;;;;;;;89.50;41.60;;;7.10;99.90;;;;;;4964771;28;20189;-81
2024/03/06 08:55:35;;;;;;;86.80;40.50;;;7.20;99.90;;;;;;4990987;28;20668;-81
2024/03/06 08:58:02;;;;;;;98.88;40.63;;;7.20;99.90;;;;;;4971983;28;20033;-82
2024/03/06 09:00:28;;;;;;;106.50;40.80;;;7.30;99.90;;;;;;4990746;28;20041;-81
2024/03/06 09:02:55;;;;;;;86.05;40.00;;;7.40;99.90;;;;;;4974953;28;20535;-80
2024/03/06 09:05:22;;;;;;;82.72;40.75;;;7.40;99.90;;;;;;5013966;28;20048;-79
2024/03/06 09:07:48;;;;;;;96.47;44.78;;;7.40;99.90;;;;;;5001717;28;20326;-79
2024/03/06 09:10:14;;;;;;;118.28;42.78;;;7.50;99.90;;;;;;4977359;28;20048;-79
2024/03/06 09:12:42;;;;;;;101.30;43.13;;;7.50;99.90;;;;;;4992844;28;20476;-79
2024/03/06 09:15:09;;;;;;;112.97;44.20;;;7.60;99.90;;;;;;4992060;28;20074;-80
2024/03/06 09:17:36;;;;;;;87.15;36.70;;;7.70;99.90;;;;;;4972179;28;20045;-80
2024/03/06 09:20:09;;;;;;;92.80;37.30;;;7.70;99.90;;;;;;4963775;28;20052;-80
2024/03/06 09:22:37;;;;;;;92.05;40.97;;;7.70;99.90;;;;;;4996206;28;20436;-80
2024/03/06 09:25:05;;;;;;;91.93;41.03;;;7.70;99.90;;;;;;4973993;28;20026;-83
2024/03/06 09:27:32;;;;;;;200.48;56.65;;;7.70;99.90;;;;;;4972455;28;20038;-83
2024/03/06 09:29:59;;;;;;;101.00;43.20;;;7.80;99.90;;;;;;4972292;28;20140;-81
2024/03/06 09:32:26;;;;;;;89.57;40.50;;;7.80;99.90;;;;;;5006444;28;20033;-80
2024/03/06 09:34:53;;;;;;;108.03;47.88;;;7.80;99.90;;;;;;5011677;28;20033;-80
2024/03/06 09:37:20;;;;;;;89.18;44.65;;;7.80;99.90;;;;;;4977875;28;20045;-80
2024/03/06 09:39:47;;;;;;;90.80;46.72;;;7.90;99.90;;;;;;4974648;28;20029;-80
2024/03/06 09:42:15;;;;;;;82.60;44.97;;;8.00;99.90;;;;;;4971909;28;20421;-80
2024/03/06 09:44:42;;;;;;;86.15;44.70;;;8.10;99.90;;;;;;5008551;28;20048;-80
2024/03/06 09:47:16;;;;;;;82.32;43.38;;;8.20;99.90;;;;;;4997805;28;20037;-80
2024/03/06 09:49:43;;;;;;;83.28;45.33;;;8.20;99.90;;;;;;4999059;28;20587;-79
2024/03/06 09:52:10;;;;;;;92.90;43.08;;;8.20;99.90;;;;;;4991111;28;20038;-80
2024/03/06 09:54:39;;;;;;;80.75;45.25;;;8.30;99.90;;;;;;4975033;28;20041;-81
2024/03/06 09:57:06;;;;;;;103.63;52.40;;;8.30;99.90;;;;;;4970818;28;20623;-80
2024/03/06 09:59:32;;;;;;;88.82;45.22;;;8.30;99.90;;;;;;4989657;28;20318;-81
2024/03/06 10:02:03;;;;;;;97.15;50.38;;;8.40;99.90;;;;;;4998896;28;20502;-80
2024/03/06 10:04:34;;;;;;;87.05;45.13;;;8.50;99.90;;;;;;4992255;28;20056;-82
2024/03/06 10:07:02;;;;;;;88.80;47.25;;;8.50;99.90;;;;;;4992302;28;20064;-80
2024/03/06 10:09:29;;;;;;;84.07;45.10;;;8.50;99.90;;;;;;4993899;28;20041;-79
2024/03/06 10:11:56;;;;;;;88.18;45.80;;;8.50;99.90;;;;;;4974816;28;20245;-78
2024/03/06 10:14:23;;;;;;;83.82;44.53;;;8.50;99.90;;;;;;4992886;28;20045;-88
2024/03/06 10:16:55;;;;;;;79.03;42.22;;;8.50;99.90;;;;;;4993926;28;20037;-82
2024/03/06 10:19:24;;;;;;;82.68;43.33;;;8.50;99.90;;;;;;5025145;28;20548;-82
2024/03/06 10:21:51;;;;;;;85.07;44.67;;;8.50;99.90;;;;;;4991594;28;20037;-81
2024/03/06 10:24:27;;;;;;;80.07;45.25;;;8.50;99.90;;;;;;5008612;28;20562;-82
2024/03/06 10:26:59;;;;;;;86.00;44.17;;;8.60;99.90;;;;;;4969682;28;20828;-82
2024/03/06 10:29:29;;;;;;;72.82;40.05;;;8.60;99.90;;;;;;4990285;28;21001;-81
2024/03/06 10:31:57;;;;;;;94.40;47.05;;;8.60;99.90;;;;;;4981965;28;20509;-91
2024/03/06 10:34:28;;;;;;;80.78;44.17;;;8.60;99.90;;;;;;4973636;28;20535;-84
2024/03/06 10:36:54;;;;;;;87.45;46.10;;;8.60;99.90;;;;;;4974025;28;20057;-87
2024/03/06 10:39:22;;;;;;;83.88;46.22;;;8.70;99.90;;;;;;4975231;28;20041;-88
2024/03/06 10:41:57;;;;;;;86.28;46.55;;;8.70;99.90;;;;;;4959084;28;20087;-84
2024/03/06 10:44:26;;;;;;;77.32;41.17;;;8.70;99.90;;;;;;5012705;28;20109;-84
2024/03/06 10:47:00;;;;;;;87.55;46.05;;;8.80;99.90;;;;;;4997103;28;20551;-87
2024/03/06 10:49:27;;;;;;;90.75;48.10;;;9.00;99.90;;;;;;4991446;28;20048;-85
2024/03/06 10:51:57;;;;;;;84.47;45.22;;;9.00;99.90;;;;;;4974490;28;20674;-82
2024/03/06 10:54:28;;;;;;;71.82;41.13;;;9.00;99.90;;;;;;4975725;28;20045;-83
2024/03/06 10:56:55;;;;;;;79.30;42.25;;;9.20;99.90;;;;;;4960693;28;21076;-87
2024/03/06 10:59:29;;;;;;;76.07;42.28;;;9.40;99.90;;;;;;4985189;28;20040;-83
2024/03/06 11:01:57;;;;;;;76.80;44.15;;;9.60;99.90;;;;;;4986220;28;20053;-84
2024/03/06 11:04:28;;;;;;;76.18;44.75;;;9.80;99.90;;;;;;4982520;28;20487;-89
2024/03/06 11:06:56;;;;;;;73.38;43.10;;;9.90;99.90;;;;;;4994140;28;20052;-83
2024/03/06 11:09:23;;;;;;;71.43;43.50;;;10.10;99.90;;;;;;4992506;28;20041;-85
2024/03/06 11:11:51;;;;;;;83.97;50.13;;;10.30;99.90;;;;;;4966370;28;20044;-82
2024/03/06 11:14:18;;;;;;;81.15;47.83;;;10.50;99.90;;;;;;4986026;28;20044;-85
2024/03/06 11:17:09;;;;;;;84.35;50.00;;;10.60;99.90;;;;;;4964377;28;20390;-82
2024/03/06 11:20:00;;;;;;;80.63;47.42;;;10.90;99.90;;;;;;4976895;28;20049;-84
2024/03/06 11:22:58;;;;;;;73.38;46.38;;;11.00;99.90;;;;;;4989760;28;20022;-84
2024/03/06 11:25:47;;;;;;;67.30;44.00;;;11.20;99.90;;;;;;5005584;28;21328;-82
2024/03/06 11:28:19;;;;;;;66.18;42.45;;;11.70;99.90;;;;;;4994827;28;20692;-84
2024/03/06 11:31:02;;;;;;;71.05;43.50;;;11.90;99.90;;;;;;4974714;28;21133;-86
2024/03/06 11:33:38;;;;;;;72.97;42.42;;;12.00;99.90;;;;;;4977910;28;20037;-91
2024/03/06 11:36:15;;;;;;;69.60;45.95;;;11.90;99.90;;;;;;4996887;28;20076;-88
2024/03/06 11:38:42;;;;;;;64.93;42.33;;;11.70;99.90;;;;;;4960432;28;20040;-86
2024/03/06 11:41:09;;;;;;;66.25;44.20;;;11.50;99.90;;;;;;4995634;28;20068;-87
2024/03/06 11:43:42;;;;;;;60.25;39.97;;;11.50;99.90;;;;;;4995069;28;20362;-84
2024/03/06 11:46:10;;;;;;;63.88;44.17;;;11.40;99.90;;;;;;4971714;28;20037;-83
2024/03/06 11:48:37;;;;;;;66.85;43.05;;;11.20;99.90;;;;;;4987474;28;20129;-81
2024/03/06 11:51:07;;;;;;;65.10;42.20;;;11.20;99.90;;;;;;4989165;28;20396;-84
2024/03/06 11:53:39;;;;;;;61.28;41.03;;;11.20;99.90;;;;;;4977401;28;20055;-84
2024/03/06 11:56:07;;;;;;;60.28;37.13;;;11.10;99.90;;;;;;4966713;28;20029;-89
2024/03/06 11:58:34;;;;;;;60.03;39.55;;;11.20;99.90;;;;;;4975287;28;20040;-86
2024/03/06 12:01:04;;;;;;;69.70;46.10;;;11.30;99.90;;;;;;4976431;28;20037;-84
2024/03/06 12:03:31;;;;;;;65.18;42.17;;;11.50;99.90;;;;;;5008189;28;20504;-83
2024/03/06 12:06:00;;;;;;;63.75;42.50;;;11.60;99.90;;;;;;4973094;28;20045;-84
2024/03/06 12:08:26;;;;;;;62.00;39.63;;;11.60;99.90;;;;;;4966061;28;20149;-91
2024/03/06 12:10:55;;;;;;;58.97;39.38;;;11.50;99.90;;;;;;4978758;28;20021;-87
2024/03/06 12:13:22;;;;;;;51.25;35.67;;;11.40;99.90;;;;;;4990659;28;20049;-80
2024/03/06 12:15:48;;;;;;;58.20;38.33;;;11.20;99.90;;;;;;4960604;28;20034;-86
2024/03/06 12:18:17;;;;;;;52.85;35.95;;;11.20;99.90;;;;;;4971723;28;20034;-81
2024/03/06 12:20:45;;;;;;;54.72;35.45;;;11.20;99.90;;;;;;4975191;28;20041;-83
2024/03/06 12:23:30;;;;;;;52.53;38.70;;;11.80;99.90;;;;;;4997472;28;20246;-89
2024/03/06 12:26:05;;;;;;;54.53;37.08;;;12.50;99.90;;;;;;4975248;28;20045;-90
2024/03/06 12:28:31;;;;;;;58.30;41.17;;;12.80;99.90;;;;;;4991116;28;20038;-83
2024/03/06 12:31:01;;;;;;;57.42;39.78;;;13.20;99.90;;;;;;4991448;28;20707;-88
2024/03/06 12:33:28;;;;;;;48.65;35.47;;;14.10;99.90;;;;;;4974915;28;20861;-90
2024/03/06 12:36:03;;;;;;;49.92;36.95;;;15.00;99.90;;;;;;5016691;28;20045;-87
2024/03/06 12:38:29;;;;;;;43.55;32.83;;;15.90;99.90;;;;;;5017141;28;20367;-84
2024/03/06 12:40:56;;;;;;;44.58;34.45;;;16.50;99.90;;;;;;4993203;28;20037;-84